KNTU/NTU METAR and TAF weather

Enter ICAO airport designator
Station Type Date Time Source
KNTU METAR 2022/01/26 07:56 UTC NOAA

KNTU 260756Z 02014G23KT 10SM SCT075 02/M06 A3017 RMK AO2 SLP219 T00171056


Station Type Date Time Source
KNTU Decoded METAR 2022/01/26 07:56 UTC NOAA

OCEANA, NAVAL AIR STATION, VA, United States (KNTU) 36-49N 076-02W 6M
Jan 26, 2022 - 02:56 AM EST / 2022.01.26 0756 UTC
Wind: from the NNE (020 degrees) at 16 MPH (14 KT) gusting to 26 MPH (23 KT):0
Visibility: 10 mile(s):0
Sky conditions: partly cloudy
Temperature: 35.1 F (1.7 C)
Dew Point: 21.9 F (-5.6 C)
Relative Humidity: 58%
Pressure (altimeter): 30.17 in. Hg (1021 hPa)
ob: KNTU 260756Z 02014G23KT 10SM SCT075 02/M06 A3017 RMK AO2 SLP219 T00171056
cycle: 8

Station Type Date Time Source
KNTU TAF 2022/01/26 08:21 UTC NOAA

TAF
AMD KNTU 2608/2707 02015G20KT 9999 SCT200 QNH3013INS
TEMPO 2608/2613 BKN040 OVC200
BECMG 2614/2616 35013KT 9999 FEW040 SCT200 QNH3028INS
BECMG 2700/2702 02010KT 9999 SKC QNH3040INS T01/2609Z TM02/2706Z
AMD 0315 FN00240

Example: see airport list